Tiempo atmosférico en la estación meteorológica de Cáceres, Cáceres (405 m.)



Fecha
DESCASC
Temp. máxima en grados centígrados (hora)
DESCASC
Temp. mínima en grados centígrados (hora)
DESCASC
Temp. media en grados centígrados
DESCASC
Racha de viento máxima en m/sg (hora)
DESCASC
Velocidad máxima media en intervalos de 10 minutos(hora)
DESCASC
Precipitaciones diarias en mm
DESCASC
Precipitaciones de 00:00 a 06:00 en mm
DESCASC
Precipitaciones de 06:00 a 12:00 en mm
DESCASC
Precipitaciones de 12:00 a 18:00 en mm
DESCASC
Precipitaciones de 18:00 a 24:00 en mm
DESCASC
16-06-2019 30.3 (15:40) 11.9 (07:10) 21.1 9.44 (17:20) 6.11 (16:50) 0 0 0 0 0
15-06-2019 26.1 (20:10) 11 (07:00) 18.6 6.39 (02:00) 4.44 (04:50) 0 0 0 0 0
14-06-2019 22 (16:20) 9.8 (07:10) 15.9 13.06 (17:20) 6.67 (03:00) 0 0 0 0 0
13-06-2019 27.1 (19:20) 8.6 (00:00) 17.9 10.83 (17:30) 7.5 (04:30) 0 0 0 0 0
12-06-2019 27.5 (19:40) 9.9 (00:00) 18.7 9.44 (17:50) 4.44 (23:10) 0 0 0 0 0
11-06-2019 24 (18:00) 13.5 (00:00) 18.8 14.44 (14:50) 7.5 (12:40) 0 0 0 0 0
10-06-2019 27.1 (18:40) 13.3 (00:00) 20.2 10.28 (22:50) 5.83 (22:50) 0 0 0 0 0
09-06-2019 26.2 (17:30) 12.1 (00:00) 19.2 10.83 (21:00) 5.83 (06:00) 0 0 0 0 0
08-06-2019 28.2 (19:10) 9.3 (00:00) 18.8 8.89 (17:10) 5 (22:30) 0 0 0 0 0
07-06-2019 22.6 (19:10) 9.5 (00:00) 16.1 10 (02:20) 6.11 (04:20) 0.4 0.4 0 0 0
06-06-2019 23.2 (18:30) 9.4 (00:00) 16.3 16.11 (21:30) 6.67 (20:50) 0.8 0 0 0 0.8
05-06-2019 21.7 (17:30) 10.5 (00:00) 16.1 11.39 (01:00) 6.11 (01:00) 0 0 0 0 0
04-06-2019 25.6 (17:20) 14.9 (00:00) 20.3 13.06 (18:50) 7.78 (19:00) 0 0 0 0 0
03-06-2019 33.2 (16:20) 19.4 (00:00) 26.3 12.5 (18:20) 6.67 (19:20) 0 0 0 0 0
02-06-2019 35.8 (17:30) 19.5 (00:00) 27.6 10.83 (20:50) 5.56 (20:30) 0 0 0 0 0
01-06-2019 35.4 (18:10) 21.4 (00:00) 28.4 11.11 (04:40) 7.78 (04:30) 0 0 0 0 0
31-05-2019 34.4 (18:20) 16.7 (00:00) 25.6 7.78 (15:20) 4.44 (06:40) 0 0 0 0 0
30-05-2019 32.7 (19:00) 16.9 (00:00) 24.8 10.83 (15:50) 5 (10:30) 0 0 0 0 0
29-05-2019 30.1 (18:50) 14.6 (00:00) 22.4 10.28 (12:30) 6.11 (10:00) 0 0 0 0 0
28-05-2019 29.8 (17:20) 15.9 (00:00) 22.8 11.39 (18:20) 6.67 (18:20) 0 0 0 0 0
27-05-2019 31.8 (17:40) 16.8 (00:00) 24.3 10.83 (17:10) 6.11 (17:50) 0 0 0 0 0
26-05-2019 30.2 (17:50) 13 (00:00) 21.6 13.33 (17:50) 6.67 (18:10) 0 0 0 0 0
25-05-2019 27.5 (18:10) 11.5 (00:00) 19.5 10.28 (15:00) 5 (19:20) 0 0 0 0 0
24-05-2019 27.5 (18:00) 14.7 (00:00) 21.1 12.5 (11:20) 6.94 (11:40) 0 0 0 0 0
23-05-2019 29.1 (17:20) 13.9 (00:00) 21.5 11.11 (21:20) 6.11 (20:30) 0 0 0 0 0
22-05-2019 29.4 (19:20) 13.5 (00:00) 21.4 8.61 (02:40) 5.28 (02:10) 0 0 0 0 0

Gráficas

Temp. máximas Temp. mínimas Temp. medias Precipitaciones Rachas de viento máximas Velocidades máximas media en intervalos de 10 minutos

Datos horarios

Fecha y hora oficial Temperatura (ºC) Velocidad del viento (km/h) Dirección del viento Racha (km/h) Dirección de racha Precipitación (mm) Presión (hPa) Tendencia (hPa) Humedad (%)
2019-06-20 23:00:00 20.1 14 Oeste 28 Oeste 0 969.2 1.9 53
2019-06-20 22:00:00 22.1 18 Oeste 34 Oeste 0 968.2 0.9 47
2019-06-20 21:00:00 24.9 16 Oeste 30 Noroeste 0 967.7 0 38
2019-06-20 20:00:00 26.5 15 Oeste 30 Oeste 0 967.3 -0.6 32
2019-06-20 19:00:00 27.3 17 Oeste 30 Oeste 0 967.3 -1.1 30
2019-06-20 18:00:00 26.6 12 Oeste 33 Noroeste 0 967.7 -1.4 32
2019-06-20 17:00:00 26.8 12 Noroeste 32 Sudoeste 0 967.9 -1.4 31
2019-06-20 16:00:00 26.5 13 Oeste 30 Sudoeste 0 968.4 -1.1 33
2019-06-20 15:00:00 25.3 12 Sudoeste 30 Sudoeste 0 969.1 -0.3 37
2019-06-20 14:00:00 25.3 15 Sudoeste 33 Sudoeste 0 969.3 0 40
2019-06-20 13:00:00 23.9 12 Oeste 28 Sudoeste 0 969.5 0.1 47
2019-06-20 12:00:00 23.8 10 Sur 27 Sudoeste 0 969.4 0 46
2019-06-20 11:00:00 22.3 8 Sudoeste 21 Sudoeste 0 969.3 -0.1 52
2019-06-20 10:00:00 20.6 16 Sudoeste 26 Sudoeste 0 969.4 -0.1 60
2019-06-20 09:00:00 20.1 6 Oeste 15 Sudoeste 0 969.4 0 60
2019-06-20 08:00:00 17.7 11 Sudoeste 20 Sudoeste 0 969.4 0.1 71
2019-06-20 07:00:00 16.5 13 Sudoeste 18 Sudoeste 0 969.5 -0.1 76
2019-06-20 06:00:00 17.3 6 Oeste 13 Oeste 0 969.4 -0.4 71
2019-06-20 05:00:00 17.3 6 Oeste 14 Oeste 0 969.3 -0.8 73
2019-06-20 04:00:00 17.5 6 Oeste 14 Noroeste 0 969.6 -0.5 72
2019-06-20 03:00:00 18.2 8 Oeste 16 Oeste 0 969.8 -0.3 70
2019-06-20 02:00:00 18.9 10 Noroeste 23 Noroeste 0 970.1 0.4 67
2019-06-20 01:00:00 19.7 9 Oeste 20 Noroeste 0 970.1 0.6 63
2019-06-20 00:00:00 20.8 9 Oeste 19 Oeste 0 970.1 0.6 57
2019-06-19 23:00:00 20.7 8 Sudoeste 17 Sudoeste 0 969.7 0.3 58
2019-06-19 22:00:00 22.8 11 Sudoeste 22 Sudoeste 0 969.5 0 51
2019-06-19 21:00:00 23.6 14 Sudoeste 25 Sudoeste 0 969.5 -0.4 49
2019-06-19 20:00:00 25.1 13 Oeste 26 Sudoeste 0 969.4 -0.9 44
2019-06-19 19:00:00 24.3 12 Oeste 24 Oeste 0 969.5 -1.2 45
2019-06-19 18:00:00 25.2 11 Sudoeste 31 Oeste 0 969.9 -1.3 43
2019-06-19 17:00:00 24.8 11 Sudoeste 26 Sudoeste 0 970.3 -1.2 43
2019-06-19 16:00:00 24.9 12 Sudoeste 28 Sudoeste 0 970.7 -0.9 46
2019-06-19 15:00:00 23.6 15 Sur 26 Sur 0 971.2 -0.1 50
2019-06-19 14:00:00 22.3 10 Sudoeste 24 Sudoeste 0 971.5 0.2 53
2019-06-19 13:00:00 21.8 8 Sudoeste 20 Sudoeste 0 971.6 0.2 56
2019-06-19 12:00:00 20.7 9 Sudoeste 22 Sudoeste 0 971.3 0.4 60
2019-06-19 11:00:00 20.2 11 Sudoeste 22 Sudoeste 0 971.3 0.6 66
2019-06-19 10:00:00 18.4 13 Sudoeste 24 Sudoeste 0 971.4 0.9 76
2019-06-19 09:00:00 17.6 12 Sudoeste 22 Sudoeste 0 970.9 0.4 81
2019-06-19 08:00:00 16.4 15 Sudoeste 20 Sudoeste 0 970.7 0.4 89
2019-06-19 07:00:00 16.6 12 Sur 19 Sudoeste 0 970.5 0.5 84
2019-06-19 06:00:00 16.4 9 Sur 27 Sudoeste 0 970.5 0.2 83
2019-06-19 05:00:00 16.4 7 Sudoeste 24 Sur 0 970.3 0 80
2019-06-19 04:00:00 16.9 9 Sudoeste 26 Sudoeste 0 970 -0.3 76
2019-06-19 03:00:00 17.8 13 Sudoeste 21 Sudoeste 0 970.3 0 67
2019-06-19 02:00:00 18.7 13 Sudoeste 19 Oeste 0 970.3 0.6 60
2019-06-19 01:00:00 19.5 9 Oeste 24 Oeste 0 970.3 1.2 55
2019-06-19 00:00:00 20.5 12 Oeste 30 Oeste 0 970.3 1.2 51
2019-06-18 23:00:00 22.1 12 Oeste 28 Sudoeste 0 969.7 1 52
2019-06-18 22:00:00 22.5 10 Sudoeste 37 Sudoeste 0 969.1 0.6 55
2019-06-18 21:00:00 24 17 Sudoeste 39 Oeste 0 969.1 0.5 49
2019-06-18 20:00:00 24.5 17 Oeste 39 Oeste 0 968.7 0.1 48
2019-06-18 19:00:00 25.2 22 Sudoeste 41 Sudoeste 0 968.5 -0.5 44
2019-06-18 18:00:00 25.8 19 Sudoeste 44 Sudoeste 0 968.6 -0.8 40
2019-06-18 17:00:00 25.9 13 Oeste 47 Sur 0 968.6 -1.2 38
2019-06-18 16:00:00 25.6 16 Sudoeste 39 Sudoeste 0 969 -0.8 41
2019-06-18 15:00:00 25 17 Sudoeste 47 Sudoeste 0 969.4 -0.2 47
2019-06-18 14:00:00 24.2 18 Sudoeste 40 Oeste 0 969.8 0.2 46
2019-06-18 13:00:00 23.3 19 Sur 37 Sudoeste 0 969.8 0.4 47
2019-06-18 12:00:00 22 22 Sudoeste 38 Sur 0 969.6 0.2 39
2019-06-18 11:00:00 21 18 Sudoeste 39 Sur 0 969.6 0.5 38
2019-06-18 10:00:00 19.1 22 Sudoeste 37 Sudoeste 0 969.4 0.5 42
2019-06-18 09:00:00 18.8 15 Sudoeste 29 Sur 0 969.4 0.8 38
2019-06-18 08:00:00 16.3 19 Sudoeste 30 Sudoeste 0 969.1 0.8 46
2019-06-18 07:00:00 16.2 16 Sudoeste 26 Sudoeste 0 968.9 0.5 39
2019-06-18 06:00:00 17.3 17 Sudoeste 28 Sudoeste 0 968.6 0 36
2019-06-18 05:00:00 18.3 18 Sudoeste 33 Oeste 0 968.3 -0.1 40
2019-06-18 04:00:00 19.3 18 Sudoeste 30 Sudoeste 0 968.4 -0.4 39
2019-06-18 03:00:00 19.8 17 Sudoeste 25 Sudoeste 0 968.6 0.1 47
2019-06-18 02:00:00 20.2 12 Sudoeste 23 Sudoeste 0 968.4 0.1 46
2019-06-18 01:00:00 22.4 10 Oeste 21 Oeste 0 968.8 1 35
2019-06-18 00:00:00 25.1 5 Sudoeste 19 Sur 0 968.5 0.8 18
2019-06-17 23:00:00 26.3 8 Sur 21 Sur 0 968.3 0.5 17
2019-06-17 22:00:00 27.1 6 Oeste 25 Sudoeste 0 967.8 0.2 16
2019-06-17 21:00:00 28.1 9 Oeste 25 Oeste 0 967.7 -0.2 17
2019-06-17 20:00:00 28.9 12 Oeste 28 Sudoeste 0 967.8 -0.7 15
2019-06-17 19:00:00 29.8 14 Sudoeste 30 Sudoeste 0 967.6 -1.5 14
2019-06-17 18:00:00 31.6 13 Sudoeste 32 Sur 0 967.9 -1.8 12
2019-06-17 17:00:00 30.8 10 Sudoeste 41 Sur 0 968.5 -1.9 11
2019-06-17 16:00:00 29.7 15 Sudoeste 33 Sudoeste 0 969.1 -1.7 14
2019-06-17 15:00:00 29.4 14 Sur 32 Sur 0 969.7 -1.5 12
2019-06-17 14:00:00 28.6 17 Sur 31 Sudoeste 0 970.4 -1.2 14
2019-06-17 13:00:00 27.4 12 Sudeste 26 Sur 0 970.8 -1.2 19
2019-06-17 12:00:00 26 10 Sudeste 31 Sur 0 971.2 -0.6 30
2019-06-17 11:00:00 24.4 8 Sur 20 Sur 0 971.6 -0.1 36
2019-06-17 10:00:00 22.6 5 Sudoeste 10 Norte 0 972 0.6 40
2019-06-17 09:00:00 21.7 0 Calma 5 Este 0 971.8 0.3 43
2019-06-17 08:00:00 16 2 Sudoeste 7 Este 0 971.7 0.3 62
2019-06-17 07:00:00 15.3 3 Sudoeste 13 Sudoeste 0 971.4 0 64
2019-06-17 06:00:00 16.9 12 Sudoeste 17 Sudoeste 0 971.5 -0.2 61
2019-06-17 05:00:00 17.3 10 Sudoeste 23 Sudoeste 0 971.4 -0.2 59
2019-06-17 04:00:00 18.6 13 Oeste 21 Sudoeste 0 971.4 -0.3 55
2019-06-17 03:00:00 18.6 7 Oeste 23 Oeste 0 971.7 0.1 56
2019-06-17 02:00:00 19.3 15 Oeste 26 Oeste 0 971.6 0.5 53
2019-06-17 01:00:00 21 10 Oeste 20 Noroeste 0 971.7 1.4 41
2019-06-17 00:00:00 20.7 8 Oeste 10 Oeste 0 971.6 1.4 36
2019-06-16 23:00:00 22.7 6 Oeste 18 Oeste 0 971.1 0.9 28
2019-06-16 22:00:00 23.7 10 Sudoeste 14 Sur 0 970.3 0 17
2019-06-16 21:00:00 28.9 7 Sudoeste 14 Sudoeste 0 970.2 -0.2 14
2019-06-16 20:00:00 29.3 9 Sudoeste 27 Sur 0 970.2 -0.5 10
2019-06-16 19:00:00 29.2 13 Sudoeste 26 Sudoeste 0 970.3 -0.3 12
2019-06-16 18:00:00 28 16 Sur 34 Sur 0 970.4 -0.6 16
2019-06-16 17:00:00 28.1 17 Sur 31 Sur 0 970.7 -0.9 20
2019-06-16 16:00:00 30.1 15 Sur 33 Sur 0 970.6 -1.5 15
2019-06-16 15:00:00 28.9 12 Sudoeste 24 Sudoeste 0 971 -1.6 19
2019-06-16 14:00:00 27.8 5 Este 22 Noroeste 0 971.6 -1.1 22
2019-06-16 13:00:00 26.4 7 Norte 17 Norte 0 972.1 -0.5 26
2019-06-16 12:00:00 23.8 4 Noroeste 9 Noroeste 0 972.6 0.1 32
2019-06-16 11:00:00 21.3 4 Nordeste 7 Norte 0 972.7 0.6 38
2019-06-16 10:00:00 19.3 3 Norte 8 Norte 0 972.6 0.7 46
2019-06-16 09:00:00 18.3 3 Norte 5 Nordeste 0 972.5 0.9 48
2019-06-16 08:00:00 14.2 0 Calma 8 Sudoeste 0 972.1 0.5 60
2019-06-16 07:00:00 12 3 Sudoeste 6 Sudoeste 0 971.9 0.1 67
2019-06-16 06:00:00 13 5 Sudoeste 9 Sudoeste 0 971.6 -0.5 63
2019-06-16 05:00:00 14.1 5 Sudoeste 8 Sudoeste 0 971.6 -1.1 61
2019-06-16 04:00:00 15.4 6 Sudoeste 9 Oeste 0 971.8 -0.9 58
2019-06-16 03:00:00 17.2 6 Oeste 11 Oeste 0 972.1 -0.8 53
2019-06-16 02:00:00 17.9 7 Noroeste 30 Sudoeste 0 972.7 -0.1 49
2019-06-16 01:00:00 19.4 11 Sudoeste 22 Sur 0 972.7 0.3 35
2019-06-16 00:00:00 19.1 15 Sur 21 Sur 0 972.9 0.7 32
2019-06-15 23:00:00 18.2 8 Sudoeste 11 Sudoeste 0 972.8 0.8 33
2019-06-15 22:00:00 20.7 7 Sudoeste 10 Norte 0 972.4 0.3 29
2019-06-15 21:00:00 25.2 8 Norte 17 Norte 0 972.2 -0.4 21
2019-06-15 20:00:00 25.8 6 Oeste 16 Nordeste 0 972 -1.1 21
2019-06-15 19:00:00 25.6 8 Este 19 Norte 0 972.1 -1.5 21
2019-06-15 18:00:00 25.2 5 Noroeste 22 Norte 0 972.6 -1.5 22
2019-06-15 17:00:00 24.7 12 Norte 22 Norte 0 973.1 -1.5 23
2019-06-15 16:00:00 24.1 8 Norte 23 Norte 0 973.6 -1.3 26
2019-06-15 15:00:00 23 11 Sudoeste 23 Oeste 0 974.1 -1 28
2019-06-15 14:00:00 21.5 9 Noroeste 21 Noroeste 0 974.6 -0.4 30
2019-06-15 13:00:00 20.4 8 Norte 18 Noroeste 0 974.9 -0.1 33
2019-06-15 12:00:00 18.9 7 Sur 16 Sudoeste 0 975.1 0.5 40
2019-06-15 11:00:00 17.5 5 Norte 12 Norte 0 975 1 45
2019-06-15 10:00:00 15.5 6 Norte 14 Noroeste 0 975 1.2 54
2019-06-15 09:00:00 14 6 Noroeste 14 Norte 0 974.6 1 61
2019-06-15 08:00:00 12.8 5 Noroeste 10 Oeste 0 974 0.4 68
2019-06-15 07:00:00 11 3 Oeste 15 Oeste 0 973.8 0.1 74
2019-06-15 06:00:00 11.5 9 Oeste 18 Sudoeste 0 973.6 0 73
2019-06-15 05:00:00 12 12 Oeste 22 Sudoeste 0 973.6 0 71
2019-06-15 04:00:00 12.7 10 Oeste 20 Sudoeste 0 973.7 0.1 67
2019-06-15 03:00:00 13.3 9 Oeste 23 Oeste 0 973.6 0.4 63
2019-06-15 02:00:00 13.8 11 Oeste 23 Oeste 0 973.6 0.7 59
2019-06-15 01:00:00 14.4 10 Oeste 22 Sudoeste 0 973.6 1.5 55
2019-06-15 00:00:00 15.5 14 Oeste 23 Oeste 0 973.2 1.6 49
2019-06-14 23:00:00 16.2 11 Oeste 25 Oeste 0 972.9 2 47
2019-06-14 22:00:00 17.1 15 Oeste 31 Oeste 0 972.1 1.8 44
2019-06-14 21:00:00 18.4 15 Oeste 32 Noroeste 0 971.6 1.7 40
2019-06-14 20:00:00 18.8 19 Oeste 37 Noroeste 0 970.9 1.3 40
2019-06-14 19:00:00 20.1 19 Oeste 46 Oeste 0 970.3 0.7 34
2019-06-14 18:00:00 21.3 19 Oeste 47 Oeste 0 969.9 0.5 29
2019-06-14 17:00:00 20.9 20 Oeste 41 Oeste 0 969.6 0.1 32
2019-06-14 16:00:00 21.5 21 Oeste 37 Oeste 0 969.6 0 28
2019-06-14 15:00:00 21.3 19 Sudoeste 40 Noroeste 0 969.4 0.1 28
2019-06-14 14:00:00 20.2 10 Oeste 34 Oeste 0 969.5 0.5 35
2019-06-14 13:00:00 18.8 12 Oeste 27 Sudoeste 0 969.6 1.3 41
2019-06-14 12:00:00 17.3 10 Oeste 26 Sudoeste 0 969.3 1.3 48
2019-06-14 11:00:00 15.2 17 Sur 29 Sur 0 969 1.8 55
2019-06-14 10:00:00 13.2 13 Sudoeste 26 Sur 0 968.3 1.4 63
2019-06-14 09:00:00 11.4 15 Sudoeste 27 Sudoeste 0 968 1.4 75
2019-06-14 08:00:00 10.3 19 Sudoeste 27 Sudoeste 0 967.2 0.6 77
2019-06-14 07:00:00 9.9 9 Sur 22 Sudoeste 0 966.9 0.3 73
2019-06-14 06:00:00 10.7 8 Sudoeste 13 Sudoeste 0 966.6 0 71
2019-06-14 05:00:00 11.8 8 Sudoeste 24 Oeste 0 966.6 0.2 66
2019-06-14 04:00:00 11.8 19 Sudoeste 27 Oeste 0 966.6 0.2 67
2019-06-14 03:00:00 12.7 24 Sudoeste 31 Oeste 0 966.6 0.5 63
2019-06-14 02:00:00 13.9 10 Oeste 24 Oeste 0 966.4 0.9 56
2019-06-14 01:00:00 15.2 12 Oeste 28 Oeste 0 966.4 2.2 51
2019-06-14 00:00:00 16.9 15 Oeste 37 Oeste 0 966.1 2.8 46
2019-06-13 23:00:00 19.9 16 Oeste 31 Oeste 0 965.5 2.5 34
2019-06-13 22:00:00 22.4 16 Oeste 32 Oeste 0 964.2 1.1 24
2019-06-13 21:00:00 25.7 15 Oeste 28 Oeste 0 963.3 -0.1 21
2019-06-13 20:00:00 25.7 5 Oeste 27 Sudoeste 0 963 -1 17
2019-06-13 19:00:00 26.4 12 Sudoeste 28 Sudoeste 0 963.1 -1.1 17
2019-06-13 18:00:00 26.1 13 Sur 39 Sur 0 963.4 -1.2 17
2019-06-13 17:00:00 25.1 13 Sudoeste 32 Oeste 0 964 -1 17
2019-06-13 16:00:00 25.3 15 Sur 35 Sudoeste 0 964.2 -1.1 18
2019-06-13 15:00:00 23.9 11 Sudoeste 24 Oeste 0 964.6 -1.2 19
2019-06-13 14:00:00 22.3 10 Noroeste 24 Noroeste 0 965 -0.9 25
2019-06-13 13:00:00 21 10 Sudoeste 24 Sudoeste 0 965.3 -0.5 27
2019-06-13 12:00:00 18.4 6 Oeste 25 Sur 0 965.8 0.5 37
2019-06-13 11:00:00 16.5 12 Sur 19 Sudeste 0 965.9 1.2 43
2019-06-13 10:00:00 15.1 9 Sudoeste 15 Sudoeste 0 965.8 1.1 50
2019-06-13 09:00:00 13.6 4 Sur 18 Sudoeste 0 965.3 0.7 54
2019-06-13 08:00:00 11 9 Sudoeste 19 Sudoeste 0 964.7 0.3 63
2019-06-13 07:00:00 8.8 5 Sur 8 Sudoeste 0 964.7 0.3 72
2019-06-13 06:00:00 10.7 4 Oeste 17 Nordeste 0 964.6 0.1 64
2019-06-13 05:00:00 11.4 22 Sudoeste 36 Sudoeste 0 964.4 -0.3 63
2019-06-13 04:00:00 12.8 21 Sudoeste 29 Sudoeste 0 964.4 -0.8 55
2019-06-13 03:00:00 13.8 20 Sudoeste 28 Sudoeste 0 964.5 -0.6 50
2019-06-13 02:00:00 15 5 Oeste 25 Oeste 0 964.7 0.2 45
2019-06-13 01:00:00 16.4 9 Noroeste 24 Oeste 0 965.2 1.2 44
2019-06-13 00:00:00 18 12 Oeste 30 Oeste 0 965.1 1.6 41
2019-06-12 23:00:00 20.3 14 Oeste 29 Oeste 0 964.5 1.2 33
2019-06-12 22:00:00 22.7 15 Oeste 27 Oeste 0 964 0.5 18
2019-06-12 21:00:00 25.7 15 Oeste 30 Oeste 0 963.5 -0.6 12
2019-06-12 20:00:00 27 10 Sudoeste 26 Sudoeste 0 963.3 -1.3 12
2019-06-12 19:00:00 27.3 10 Sudoeste 25 Sudoeste 0 963.5 -1.5 12
2019-06-12 18:00:00 27.3 12 Sudoeste 34 Sudoeste 0 964.1 -1.9 12
2019-06-12 17:00:00 26.8 9 Noroeste 26 Oeste 0 964.6 -2.2 12
2019-06-12 16:00:00 26.2 9 Oeste 29 Nordeste 0 965 -2.3 13
2019-06-12 15:00:00 25 15 Sudoeste 25 Sudoeste 0 966 -1.7 15
2019-06-12 14:00:00 24.4 10 Noroeste 21 Oeste 0 966.8 -1.1 14
2019-06-12 13:00:00 23.4 7 Sur 25 Sur 0 967.3 -0.9 17
2019-06-12 12:00:00 22.8 5 Sudeste 13 Sur 0 967.7 -0.4 20
2019-06-12 11:00:00 20 5 Nordeste 11 Nordeste 0 967.9 0 25
2019-06-12 10:00:00 17.2 6 Nordeste 12 Nordeste 0 968.2 0.6 31
2019-06-12 09:00:00 15.6 4 Noroeste 10 Noroeste 0 968.1 0.6 37
2019-06-12 08:00:00 12.2 3 Oeste 8 Sudoeste 0 967.9 0.3 47
2019-06-12 07:00:00 10.2 6 Sudoeste 9 Sudoeste 0 967.6 -0.4 52
2019-06-12 06:00:00 11 7 Sudoeste 9 Sudoeste 0 967.5 -0.6 52
2019-06-12 05:00:00 11.9 6 Sudoeste 10 Sudoeste 0 967.6 -0.7 48
2019-06-12 04:00:00 12.4 8 Sudoeste 9 Sudoeste 0 968 -0.5 43
2019-06-12 03:00:00 13.3 6 Oeste 10 Oeste 0 968.1 -0.4 34
2019-06-12 02:00:00 14.4 5 Sudoeste 8 Sudoeste 0 968.3 0 31
2019-06-12 01:00:00 16.3 5 Sur 10 Nordeste 0 968.5 0.8 26
2019-06-12 00:00:00 17.7 4 Norte 15 Norte 0 968.5 0.8 22
2019-06-11 23:00:00 18.4 2 Norte 14 Nordeste 0 968.3 1.1 24
2019-06-11 22:00:00 20.3 9 Nordeste 32 Norte 0 967.7 0.5 18
2019-06-11 21:00:00 22.8 18 Norte 36 Norte 0 967.7 0.4 15
2019-06-11 20:00:00 23.4 21 Norte 42 Norte 0 967.2 -- 15
2019-06-11 19:00:00 23.9 21 Nordeste 45 Nordeste 0 967.2 -0.4 14
2019-06-11 18:00:00 23.7 25 Norte 42 Norte 0 967.3 -0.3 16
2019-06-11 17:00:00 23.5 26 Norte 47 Noroeste 0 -- -- 19
2019-06-11 16:00:00 22.9 27 Norte 48 Norte 0 967.6 -0.1 23
2019-06-11 15:00:00 22.7 22 Norte 52 Noroeste 0 967.6 -0.1 25
2019-06-11 14:00:00 21.6 22 Norte 48 Noroeste 0 967.5 -0.2 31
2019-06-11 13:00:00 20.6 24 Norte 45 Norte 0 967.7 0 36
2019-06-11 12:00:00 19.8 21 Norte 40 Noroeste 0 967.7 0.1 40
2019-06-11 11:00:00 18.5 20 Noroeste 37 Noroeste 0 967.7 0.4 46
2019-06-11 10:00:00 17.2 21 Noroeste 35 Noroeste 0 967.7 0.4 50
2019-06-11 09:00:00 15.8 20 Noroeste 32 Noroeste 0 967.6 0.2 55
2019-06-11 08:00:00 14.5 12 Noroeste 27 Noroeste 0 967.3 -0.1 58
2019-06-11 07:00:00 13.5 15 Noroeste 24 Noroeste 0 967.3 -0.6 57
2019-06-11 06:00:00 14.1 13 Oeste 23 Noroeste 0 967.4 -0.9 55
2019-06-11 05:00:00 14.5 10 Noroeste 25 Noroeste 0 967.4 -1.2 52
2019-06-11 04:00:00 14.7 11 Oeste 24 Oeste 0 967.9 -1.2 50
2019-06-11 03:00:00 15.1 12 Oeste 26 Oeste 0 968.3 -1 48
2019-06-11 02:00:00 15.9 8 Oeste 30 Oeste 0 968.6 -0.5 48
2019-06-11 01:00:00 17.3 14 Oeste 33 Oeste 0 969.1 0.8 46
2019-06-11 00:00:00 18.5 16 Oeste 32 Oeste 0 969.3 1.3 42
2019-06-10 23:00:00 20.6 18 Oeste 37 Oeste 0 969.1 1 33
2019-06-10 22:00:00 22.7 18 Oeste 32 Noroeste 0 968.3 -0.3 26
2019-06-10 21:00:00 25.3 17 Oeste 35 Noroeste 0 968 -1.1 21
2019-06-10 20:00:00 26.3 16 Noroeste 34 Noroeste 0 968.1 -1.4 16
2019-06-10 19:00:00 26.6 14 Noroeste 28 Oeste 0 968.6 -1.4 15
2019-06-10 18:00:00 26.6 15 Noroeste 35 Noroeste 0 969.1 -1.7 16
2019-06-10 17:00:00 26.3 13 Noroeste 34 Noroeste 0 969.5 -2 17
2019-06-10 16:00:00 25.7 13 Noroeste 31 Noroeste 0 970 -2.2 16
2019-06-10 15:00:00 24.7 15 Noroeste 30 Noroeste 0 970.8 -1.5 23
2019-06-10 14:00:00 23.3 14 Noroeste 30 Noroeste 0 971.5 -0.9 29
2019-06-10 13:00:00 22.3 15 Noroeste 31 Noroeste 0 972.2 -0.4 33
2019-06-10 12:00:00 21.1 17 Noroeste 30 Noroeste 0 972.3 -0.1 38
2019-06-10 11:00:00 19.5 17 Noroeste 31 Norte 0 972.4 0.4 44
2019-06-10 10:00:00 17.6 16 Noroeste 28 Noroeste 0 972.6 0.9 49
2019-06-10 09:00:00 16.5 12 Noroeste 22 Noroeste 0 972.4 0.4 53
2019-06-10 08:00:00 14.4 9 Noroeste 18 Noroeste 0 972 -0.2 61
2019-06-10 07:00:00 13.4 8 Oeste 19 Noroeste 0 971.7 -0.9 64
2019-06-10 06:00:00 14 12 Noroeste 22 Oeste 0 972 -1.1 62
2019-06-10 05:00:00 14.1 11 Oeste 27 Oeste 0 972.2 -0.9 62
2019-06-10 04:00:00 14.4 15 Oeste 24 Oeste 0 972.6 -0.4 62
2019-06-10 03:00:00 15.1 13 Oeste 25 Oeste 0 973.1 0.1 59
2019-06-10 02:00:00 15.9 14 Oeste 33 Oeste 0 973.1 0.5 56
2019-06-10 01:00:00 16.8 15 Oeste 32 Noroeste 0 973 1.1 52
2019-06-10 00:00:00 17.9 15 Oeste 31 Oeste 0 973 1.8 48
2019-06-09 23:00:00 19.2 14 Oeste 36 Oeste 0 972.6 1.7 41
2019-06-09 22:00:00 20.7 17 Oeste 34 Noroeste 0 971.9 1.4 37
2019-06-09 21:00:00 23 20 Oeste 39 Noroeste 0 971.2 0.6 32
2019-06-09 20:00:00 24.4 19 Oeste 36 Oeste 0 970.9 0 26
2019-06-09 19:00:00 25.4 21 Oeste 35 Oeste 0 970.5 -0.8 24
2019-06-09 18:00:00 26 13 Noroeste 31 Oeste 0 970.6 -1.2 21
2019-06-09 17:00:00 25.7 17 Oeste 36 Norte 0 970.9 -1.3 21
2019-06-09 16:00:00 25.3 16 Noroeste 29 Oeste 0 971.3 -1.3 22
2019-06-09 15:00:00 24.5 13 Noroeste 28 Oeste 0 971.8 -1 26
2019-06-09 14:00:00 23.6 13 Oeste 28 Noroeste 0 972.2 -0.7 32
2019-06-09 13:00:00 21.7 8 Noroeste 23 Noroeste 0 972.6 -0.3 36
2019-06-09 12:00:00 19.6 8 Oeste 17 Noroeste 0 972.8 0 37
2019-06-09 11:00:00 17.5 8 Oeste 21 Noroeste 0 972.9 0.5 43
2019-06-09 10:00:00 15.3 7 Oeste 21 Sudoeste 0 972.9 1.3 48
2019-06-09 09:00:00 13.7 10 Sudoeste 17 Sudoeste 0 972.8 1.3 50
2019-06-09 08:00:00 12.2 12 Norte 28 Sudoeste 0 972.4 0.7 57
2019-06-09 07:00:00 12.2 16 Sudoeste 30 Sudoeste 0 971.6 -0.3 57
2019-06-09 06:00:00 13.1 21 Sudoeste 28 Sudoeste 0 971.5 -0.9 57
2019-06-09 05:00:00 13.9 18 Sudoeste 24 Sudoeste 0 971.7 -0.9 53
2019-06-09 04:00:00 13.7 6 Sudoeste 15 Oeste 0 971.9 -0.6 40
2019-06-09 03:00:00 14 12 Sudoeste 15 Sudoeste 0 972.4 0.2 55
2019-06-09 02:00:00 15.6 8 Oeste 26 Noroeste 0 972.6 0.9 53
2019-06-09 01:00:00 17.3 12 Oeste 30 Oeste 0 972.5 1.7 47
2019-06-09 00:00:00 19 14 Oeste 29 Oeste 0 972.2 1.9 44
2019-06-08 23:00:00 20.9 16 Oeste 32 Oeste 0 971.7 1.5 38
2019-06-08 22:00:00 23.3 12 Oeste 30 Oeste 0 970.8 0.6 22
2019-06-08 21:00:00 25.4 11 Oeste 27 Oeste 0 970.3 -0.3 18
2019-06-08 20:00:00 26.5 10 Oeste 23 Sur 0 970.2 -0.8 14
2019-06-08 19:00:00 27.4 11 Sur 25 Sudoeste 0 970.2 -1.3 14
2019-06-08 18:00:00 27 10 Oeste 32 Oeste 0 970.6 -1.4 14
2019-06-08 17:00:00 27.6 9 Oeste 28 Sudoeste 0 971 -1.5 13
2019-06-08 16:00:00 26.6 5 Sur 24 Sudoeste 0 971.5 -1.4 16
2019-06-08 15:00:00 25.9 10 Sur 27 Sur 0 972 -1.3 15
2019-06-08 14:00:00 25.3 11 Sudoeste 20 Sudoeste 0 972.5 -1.1 19
2019-06-08 13:00:00 23.7 9 Nordeste 15 Este 0 972.9 -1.2 23
2019-06-08 12:00:00 21.6 5 Norte 12 Nordeste 0 973.3 -0.7 26
2019-06-08 11:00:00 19.3 5 Nordeste 12 Nordeste 0 973.6 -0.5 33
2019-06-08 10:00:00 16.5 6 Noroeste 11 Noroeste 0 974.1 0.2 41
2019-06-08 09:00:00 14.1 4 Noroeste 9 Norte 0 974 0.3 52
2019-06-08 08:00:00 11.5 3 Oeste 8 Sudoeste 0 974.1 0.1 62
2019-06-08 07:00:00 9.5 6 Sudoeste 9 Sudoeste 0 973.9 -0.1 68
2019-06-08 06:00:00 10.1 7 Sudoeste 9 Sudoeste 0 973.7 -0.5 63
2019-06-08 05:00:00 11.4 5 Oeste 9 Sudoeste 0 974 -0.3 57
2019-06-08 04:00:00 12 6 Oeste 10 Oeste 0 974 -0.5 54
2019-06-08 03:00:00 12.5 7 Oeste 10 Sudoeste 0 974.2 -0.2 52
2019-06-08 02:00:00 13.2 7 Oeste 10 Oeste 0 974.3 0.4 49
2019-06-08 01:00:00 13.8 5 Sudoeste 10 Sudoeste 0 974.5 1 47
2019-06-08 00:00:00 14.1 6 Oeste 9 Oeste 0 974.4 1.2 42
2019-06-07 23:00:00 15.4 6 Sudoeste 8 Oeste 0 973.9 0.9 39
2019-06-07 22:00:00 18.4 3 Oeste 15 Norte 0 973.5 0.7 33
2019-06-07 21:00:00 21.5 9 Norte 21 Noroeste 0 973.2 0.5 25
2019-06-07 20:00:00 21.9 8 Noroeste 21 Noroeste 0 973 0.1 24
2019-06-07 19:00:00 22.2 9 Noroeste 26 Oeste 0 972.8 -0.1 25
2019-06-07 18:00:00 21.8 10 Norte 25 Noroeste 0 972.7 -0.3 25
2019-06-07 17:00:00 21.3 12 Oeste 24 Noroeste 0 972.9 -0.2 28
2019-06-07 16:00:00 20.8 10 Oeste 26 Noroeste 0 972.9 -0.2 31
2019-06-07 15:00:00 19.4 12 Norte 30 Norte 0 973 0.2 33
2019-06-07 14:00:00 18.4 13 Noroeste 31 Noroeste 0 973.1 0.5 39
2019-06-07 13:00:00 17.4 12 Norte 33 Noroeste 0 973.1 0.9 40
2019-06-07 12:00:00 16.5 12 Norte 23 Norte 0 972.8 1.4 45
2019-06-07 11:00:00 14.1 12 Noroeste 21 Norte 0 972.6 2.1 56
2019-06-07 10:00:00 13.1 13 Noroeste 27 Noroeste 0 972.2 2.5 68
2019-06-07 09:00:00 11.5 14 Oeste 25 Oeste 0 971.4 2.2 79
2019-06-07 08:00:00 10.4 15 Oeste 31 Oeste 0 970.5 1.7 86
2019-06-07 07:00:00 9.6 19 Oeste 32 Sudoeste 0 969.7 1.3 91
2019-06-07 06:00:00 9.9 21 Sudoeste 29 Oeste 0 969.2 1.2 88
2019-06-07 05:00:00 10.1 15 Sudoeste 32 Oeste 0 968.8 1.3 88
2019-06-07 04:00:00 10.5 17 Sudoeste 29 Oeste 0 968.4 1.4 87
2019-06-07 03:00:00 11.2 16 Oeste 36 Oeste 0 968 1.6 85
2019-06-07 02:00:00 12 15 Oeste 28 Oeste 0 967.5 2.3 87
2019-06-07 01:00:00 12.2 15 Sudoeste 27 Oeste 0.4 967 2.5 91
2019-06-07 00:00:00 12.7 16 Oeste 45 Sudoeste 0.8 966.4 2.2 93
2019-06-06 23:00:00 15.9 8 Sudoeste 50 Sudoeste 0 965.2 1.2 74
2019-06-06 22:00:00 18.1 19 Sudoeste 58 Oeste 0 964.5 0.6 56
2019-06-06 21:00:00 19.7 22 Oeste 45 Sudoeste 0 964.2 -0.1 46
2019-06-06 20:00:00 20.8 19 Sudoeste 52 Sudoeste 0 964 -1.1 39
2019-06-06 19:00:00 22 22 Sudoeste 49 Sur 0 963.9 -2.1 35
2019-06-06 18:00:00 22.9 18 Sur 45 Sur 0 964.3 -2.3 31
2019-06-06 17:00:00 22.3 21 Sur 49 Sur 0 965.1 -2.1 31
2019-06-06 16:00:00 22 15 Sudoeste 36 Sur 0 966 -1.8 32
2019-06-06 15:00:00 21.1 16 Oeste 35 Sudoeste 0 966.6 -1.6 33
2019-06-06 14:00:00 20.2 13 Sudoeste 30 Sur 0 967.2 -1.4 32
2019-06-06 13:00:00 18.9 12 Oeste 27 Sudoeste 0 967.8 -1.2 37
2019-06-06 12:00:00 17.3 12 Oeste 24 Sudoeste 0 968.2 -0.9 41
2019-06-06 11:00:00 15.6 11 Sudoeste 23 Sudoeste 0 968.6 -0.6 46
2019-06-06 10:00:00 13.7 13 Sudoeste 22 Sudoeste 0 969 0.1 55
2019-06-06 09:00:00 11.7 5 Sudoeste 19 Sudoeste 0 969.1 0 67
2019-06-06 08:00:00 10.3 11 Sudoeste 24 Sudoeste 0 969.2 0 72
2019-06-06 07:00:00 9.6 6 Oeste 19 Oeste 0 968.9 -0.7 72
2019-06-06 06:00:00 9.6 9 Oeste 18 Oeste 0 969.1 -0.7 72
2019-06-06 05:00:00 10.4 11 Oeste 30 Oeste 0 969.2 -0.9 67
2019-06-06 04:00:00 10.8 16 Oeste 29 Oeste 0 969.6 -0.7 64
2019-06-06 03:00:00 11.7 14 Oeste 27 Oeste 0 969.8 -0.5 58
2019-06-06 02:00:00 12.7 13 Oeste 26 Oeste 0 970.1 0.3 55
2019-06-06 01:00:00 13.6 15 Oeste 31 Noroeste 0 970.3 1.1 51
2019-06-06 00:00:00 14.8 15 Oeste 27 Noroeste 0 970.3 1.4 42
2019-06-05 23:00:00 15.8 13 Oeste 26 Oeste 0 969.8 1.2 38
2019-06-05 22:00:00 17.2 15 Oeste 33 Oeste 0 969.2 0.6 35
2019-06-05 21:00:00 18.9 21 Noroeste 35 Noroeste 0 968.9 0.2 31
2019-06-05 20:00:00 20.6 19 Noroeste 32 Noroeste 0 968.6 -0.5 29
2019-06-05 19:00:00 21.1 20 Oeste 38 Noroeste 0 968.6 -1.1 29
2019-06-05 18:00:00 20.8 19 Oeste 35 Noroeste 0 968.7 -1.5 26
2019-06-05 17:00:00 20.7 18 Noroeste 39 Noroeste 0 969.1 -1.5 29
2019-06-05 16:00:00 20 17 Noroeste 28 Noroeste 0 969.7 -1.1 31
2019-06-05 15:00:00 19.3 21 Noroeste 33 Noroeste 0 970.2 -0.4 32
2019-06-05 14:00:00 18.6 17 Noroeste 34 Norte 0 970.6 0.4 33
2019-06-05 13:00:00 17.7 14 Noroeste 33 Noroeste 0 970.8 0.6 39
2019-06-05 12:00:00 16.6 17 Noroeste 39 Norte 0 970.6 1 42
2019-06-05 11:00:00 16.5 16 Noroeste 37 Noroeste 0 970.2 1.2 44
2019-06-05 10:00:00 14.6 22 Noroeste 33 Noroeste 0 970.2 1.7 50
2019-06-05 09:00:00 13.5 14 Oeste 30 Noroeste 0 969.6 1.4 61
2019-06-05 08:00:00 11.5 15 Oeste 30 Oeste 0 969 1.1 71
2019-06-05 07:00:00 10.6 16 Oeste 27 Noroeste 0 968.5 1 76
2019-06-05 06:00:00 11 14 Oeste 32 Sudoeste 0 968.2 0.6 73
2019-06-05 05:00:00 11.4 20 Oeste 37 Oeste 0 967.9 0.3 72
2019-06-05 04:00:00 12.2 20 Oeste 36 Oeste 0 967.5 0.3 68
2019-06-05 03:00:00 12.7 19 Oeste 36 Oeste 0 967.6 0.4 64
2019-06-05 02:00:00 13.4 19 Oeste 39 Oeste 0 967.6 1.1 60
2019-06-05 01:00:00 13.8 22 Oeste 41 Oeste 0 967.2 1.4 59
2019-06-05 00:00:00 15.1 18 Oeste 36 Oeste 0 967.2 1.6 49
2019-06-04 23:00:00 17 23 Oeste 41 Oeste 0 966.5 0.7 48
2019-06-04 22:00:00 18.3 18 Oeste 40 Oeste 0 965.8 -0.4 47
2019-06-04 21:00:00 19.6 22 Oeste 37 Oeste 0 965.6 -0.3 51
2019-06-04 20:00:00 21.1 18 Oeste 42 Noroeste 0 965.8 -0.3 48
2019-06-04 19:00:00 20.8 28 Oeste 47 Noroeste 0 966.2 -0.2 58
2019-06-04 18:00:00 23.1 23 Oeste 41 Oeste 0 965.9 -1 46
2019-06-04 17:00:00 25.2 14 Oeste 35 Oeste 0 966.1 -1.6 36
2019-06-04 16:00:00 25.1 14 Oeste 39 Sudoeste 0 966.4 -1.5 37
2019-06-04 15:00:00 24.7 16 Oeste 36 Noroeste 0 966.9 -1.4 37
2019-06-04 14:00:00 23.7 18 Oeste 35 Oeste 0 967.7 -0.9 43
2019-06-04 13:00:00 22.8 13 Oeste 27 Sudoeste 0 967.9 -0.9 45
2019-06-04 12:00:00 21.3 17 Oeste 30 Noroeste 0 968.3 -0.2 47
2019-06-04 11:00:00 19.5 13 Oeste 27 Oeste 0 968.6 0.5 54
2019-06-04 10:00:00 17.6 15 Oeste 28 Sudoeste 0 968.8 0.9 64
2019-06-04 09:00:00 16.6 10 Oeste 21 Sudoeste 0 968.5 1.1 72
2019-06-04 08:00:00 15.5 10 Sudoeste 23 Oeste 0 968.1 0.5 77
2019-06-04 07:00:00 15.1 11 Oeste 23 Oeste 0 967.9 0 79
2019-06-04 06:00:00 15.8 10 Sudoeste 21 Sudoeste 0 967.4 -0.9 78
2019-06-04 05:00:00 16.6 8 Oeste 23 Sudoeste 0 967.6 -1.3 78
2019-06-04 04:00:00 17.5 6 Oeste 12 Oeste 0 967.9 -1.5 72
2019-06-04 03:00:00 18.5 6 Sudoeste 23 Oeste 0 968.3 -0.7 67
2019-06-04 02:00:00 19.7 8 Oeste 27 Oeste 0 968.9 0.5 62
2019-06-04 01:00:00 21 11 Oeste 26 Oeste 0 969.4 1.4 59
2019-06-04 00:00:00 22.8 15 Oeste 25 Oeste 0 969 1.1 57
2019-06-03 23:00:00 25 12 Oeste 22 Oeste 0 968.4 0.3 46
2019-06-03 22:00:00 26.8 10 Oeste 28 Sudoeste 0 968 -0.4 36
2019-06-03 21:00:00 29 14 Oeste 33 Oeste 0 967.9 -0.6 26
2019-06-03 20:00:00 30.9 15 Oeste 41 Sudoeste 0 968.1 -0.7 21
2019-06-03 19:00:00 31.8 22 Sudoeste 45 Sudoeste 0 968.4 -1 16
2019-06-03 18:00:00 32.5 19 Oeste 42 Sudoeste 0 968.5 -1.5 13
2019-06-03 17:00:00 32.7 19 Sudoeste 43 Sudoeste 0 968.8 -1.6 11
2019-06-03 16:00:00 32.7 18 Oeste 44 Sudoeste 0 969.4 -1.5 12
2019-06-03 15:00:00 32.2 17 Oeste 32 Sudoeste 0 970 -1.2 12
2019-06-03 14:00:00 31.4 13 Oeste 30 Sudoeste 0 970.4 -1 12
2019-06-03 13:00:00 30.1 14 Sudoeste 28 Sur 0 970.9 -0.9 12
2019-06-03 12:00:00 28.9 14 Sudoeste 27 Sudoeste 0 971.2 -0.4 14
2019-06-03 11:00:00 25.9 21 Sudoeste 29 Sudoeste 0 971.4 0.4 24
2019-06-03 10:00:00 24.2 6 Oeste 13 Sudoeste 0 971.8 1.1 28
2019-06-03 09:00:00 20.9 7 Oeste 13 Sudoeste 0 971.6 0.9 37
2019-06-03 08:00:00 19.7 2 Noroeste 18 Oeste 0 971 0.3 38
2019-06-03 07:00:00 20.2 9 Oeste 23 Oeste 0 970.7 -0.4 38
2019-06-03 06:00:00 20.5 18 Sudoeste 27 Oeste 0 970.7 -0.4 39
2019-06-03 05:00:00 21.1 19 Sudoeste 30 Oeste 0 970.7 -0.7 37
2019-06-03 04:00:00 21.4 19 Sudoeste 30 Sudoeste 0 971.1 -0.2 38
2019-06-03 03:00:00 22.3 16 Sudoeste 28 Oeste 0 971.1 -0.1 35
2019-06-03 02:00:00 23.3 12 Oeste 22 Oeste 0 971.4 0.4 33
2019-06-03 01:00:00 24.5 12 Oeste 21 Oeste 0 971.3 0.9 29
2019-06-03 00:00:00 25.5 9 Oeste 21 Noroeste 0 971.2 1.3 27
2019-06-02 23:00:00 27.1 8 Noroeste 25 Oeste 0 971 1.6 23
2019-06-02 22:00:00 28.9 14 Oeste 36 Noroeste 0 970.4 1.1 18
2019-06-02 21:00:00 30.7 20 Oeste 39 Noroeste 0 969.9 0.6 16
2019-06-02 20:00:00 33.2 13 Oeste 29 Oeste 0 969.4 -0.3 15
2019-06-02 19:00:00 34.3 16 Oeste 39 Sudoeste 0 969.3 -1 14
2019-06-02 18:00:00 35.4 5 Sur 19 Noroeste 0 969.3 -1.7 13
2019-06-02 17:00:00 35.4 9 Sudoeste 29 Sudoeste 0 969.7 -2.1 14
2019-06-02 16:00:00 34.5 13 Oeste 27 Oeste 0 970.3 -2.1 15
2019-06-02 15:00:00 33.6 7 Noroeste 20 Oeste 0 971 -1.5 17
2019-06-02 14:00:00 32.5 8 Nordeste 18 Norte 0 971.8 -0.9 19
2019-06-02 13:00:00 31.3 9 Norte 17 Noroeste 0 972.4 0 21
2019-06-02 12:00:00 29.5 8 Oeste 14 Oeste 0 972.5 0.6 24
2019-06-02 11:00:00 27.9 5 Norte 9 Nordeste 0 972.7 1.1 26
2019-06-02 10:00:00 26.5 4 Este 12 Sudeste 0 972.4 1.2 29
2019-06-02 09:00:00 25.2 3 Este 6 Sudoeste 0 971.9 0.9 31
2019-06-02 08:00:00 20.1 2 Sudoeste 14 Este 0 971.6 0.6 45
2019-06-02 07:00:00 20.4 7 Sudoeste 9 Sudoeste 0 971.2 0.2 40
2019-06-02 06:00:00 20.3 6 Oeste 9 Sudoeste 0 971 -0.1 41
2019-06-02 05:00:00 20.2 7 Sudoeste 9 Sudoeste 0 971 -0.3 41
2019-06-02 04:00:00 21.6 5 Sudoeste 9 Oeste 0 971 -0.3 37
2019-06-02 03:00:00 23.4 7 Oeste 10 Oeste 0 971.1 -0.3 31
2019-06-02 02:00:00 25.2 8 Oeste 27 Sudoeste 0 971.3 0 29
2019-06-02 01:00:00 26.8 15 Sudoeste 24 Sudoeste 0 971.3 0.6 25
2019-06-02 00:00:00 26.3 9 Sudoeste 16 Sudoeste 0 971.4 0.9 23
2019-06-01 23:00:00 26.5 10 Sur 16 Sur 0 971.3 1 23
2019-06-01 22:00:00 27.3 7 Sudoeste 9 Sudoeste 0 970.7 0.2 23
2019-06-01 21:00:00 32.6 3 Oeste 8 Sudoeste 0 970.5 -0.4 19
2019-06-01 20:00:00 34.5 4 Norte 15 Norte 0 970.3 -1.1 13
2019-06-01 19:00:00 35 6 Noroeste 20 Noroeste 0 970.5 -1.6 12
2019-06-01 18:00:00 35.2 7 Nordeste 16 Norte 0 970.9 -1.8 12
2019-06-01 17:00:00 35.1 9 Este 24 Nordeste 0 971.4 -1.9 12
2019-06-01 16:00:00 34.4 9 Nordeste 23 Nordeste 0 972.1 -1.8 13
2019-06-01 15:00:00 33.7 12 Nordeste 24 Este 0 972.7 -1.5 14
2019-06-01 14:00:00 32.7 6 Nordeste 20 Norte 0 973.3 -1 17
2019-06-01 13:00:00 31 6 Noroeste 17 Nordeste 0 973.9 -0.6 21
2019-06-01 12:00:00 30 5 Norte 14 Sudeste 0 974.2 -0.1 22
2019-06-01 11:00:00 28.4 7 Sudoeste 14 Sudeste 0 974.3 0.5 24
2019-06-01 10:00:00 26.2 2 Sur 11 Sudeste 0 974.5 1.4 26
2019-06-01 09:00:00 24.1 6 Este 21 Sudeste 0 974.3 1.5 30
2019-06-01 08:00:00 22.3 5 Norte 25 Sur 0 973.8 1.3 31
2019-06-01 07:00:00 21.5 20 Sur 30 Sur 0 973.1 0.8 32
2019-06-01 06:00:00 21.6 9 Sudeste 32 Sur 0 972.8 0.3 32
2019-06-01 05:00:00 23.2 24 Sur 40 Sur 0 972.5 -0.2 28
2019-06-01 04:00:00 25.3 27 Sur 33 Sur 0 972.3 -0.7 20
2019-06-01 03:00:00 26.6 20 Sur 27 Sur 0 972.5 -0.5 19
2019-06-01 02:00:00 24.7 7 Sudeste 15 Sudeste 0 972.7 -0.1 25
2019-06-01 01:00:00 22.7 5 Sur 9 Sudoeste 0 973 0.7 34
2019-06-01 00:00:00 23.3 7 Sudoeste 9 Sudoeste 0 973 0.8 32
2019-05-31 23:00:00 24.6 6 Sudoeste 8 Sudoeste 0 972.8 0.8 30
2019-05-31 22:00:00 27.9 4 Sudeste 13 Nordeste 0 972.3 -0.1 25
2019-05-31 21:00:00 32.7 8 Nordeste 19 Nordeste 0 972.2 -0.6 16
2019-05-31 20:00:00 33.6 13 Nordeste 23 Este 0 972 -1.3 14
2019-05-31 19:00:00 34.1 10 Este 24 Nordeste 0 972.4 -1.5 12
2019-05-31 18:00:00 34.2 13 Este 25 Nordeste 0 972.8 -1.6 12
2019-05-31 17:00:00 34.3 8 Este 24 Este 0 973.3 -1.6 13
2019-05-31 16:00:00 33.4 7 Norte 28 Nordeste 0 973.9 -1.6 14
2019-05-31 15:00:00 32.8 10 Este 24 Nordeste 0 974.4 -1.3 14
2019-05-31 14:00:00 32 9 Sudeste 22 Este 0 974.9 -1 17
2019-05-31 13:00:00 31 10 Sudeste 23 Este 0 975.5 -0.5 19
2019-05-31 12:00:00 29.2 12 Este 21 Este 0 975.7 -0.2 21
2019-05-31 11:00:00 27.3 6 Nordeste 14 Nordeste 0 975.9 0.1 24
2019-05-31 10:00:00 24.2 4 Norte 9 Nordeste 0 976 0.6 29
2019-05-31 09:00:00 22 3 Norte 10 Nordeste 0 975.9 0.8 31
2019-05-31 08:00:00 19.9 4 Noroeste 17 Sur 0 975.8 1.1 40
2019-05-31 07:00:00 20.4 13 Sur 22 Sudoeste 0 975.4 0.9 35
2019-05-31 06:00:00 17.6 5 Sur 10 Sur 0 975.1 0.2 36
2019-05-31 05:00:00 18.1 4 Oeste 10 Noroeste 0 974.7 -0.4 38
2019-05-31 04:00:00 20.5 3 Este 10 Este 0 974.5 -0.7 31
2019-05-31 03:00:00 21.2 2 Este 9 Sudeste 0 974.9 -0.4 29
2019-05-31 02:00:00 23.8 8 Sudeste 13 Sudeste 0 975.1 0.1 23
2019-05-31 01:00:00 21.2 6 Sur 10 Sudeste 0 975.2 0.8 27
2019-05-31 00:00:00 22.2 5 Sudeste 9 Sudeste 0 975.3 1.3 29
2019-05-30 23:00:00 24.1 3 Sudeste 6 Sur 0 975 1.3 23
2019-05-30 22:00:00 27.7 3 Nordeste 20 Nordeste 0 974.4 0.3 20
2019-05-30 21:00:00 31.5 11 Nordeste 24 Nordeste 0 974 -0.4 14
2019-05-30 20:00:00 32.2 13 Nordeste 26 Norte 0 973.7 -1.2 13
2019-05-30 19:00:00 32.5 15 Nordeste 28 Este 0 974.1 -1.2 12
2019-05-30 18:00:00 32.5 14 Nordeste 25 Nordeste 0 974.4 -1.6 11
2019-05-30 17:00:00 32.1 12 Nordeste 27 Este 0 974.9 -1.5 13
2019-05-30 16:00:00 31.4 12 Nordeste 39 Este 0 975.3 -1.4 14
2019-05-30 15:00:00 30.4 14 Este 31 Este 0 976 -1.2 15
2019-05-30 14:00:00 29.4 13 Nordeste 30 Nordeste 0 976.4 -1.1 18
2019-05-30 13:00:00 28.1 15 Nordeste 30 Nordeste 0 976.7 -0.8 20
2019-05-30 12:00:00 26.9 14 Nordeste 30 Este 0 977.2 -0.3 21
2019-05-30 11:00:00 25.1 18 Este 32 Este 0 977.5 0.4 24
2019-05-30 10:00:00 23.3 15 Nordeste 27 Nordeste 0 977.5 0.9 27
2019-05-30 09:00:00 21.1 10 Nordeste 19 Nordeste 0 977.5 1.3 32
2019-05-30 08:00:00 19.2 6 Este 13 Este 0 977.1 1.1 38
2019-05-30 07:00:00 17.4 10 Sudeste 16 Este 0 976.6 0.6 43
2019-05-30 06:00:00 17.8 6 Este 10 Este 0 976.2 0.3 40
2019-05-30 05:00:00 18.7 8 Sudeste 13 Sudeste 0 976 0.1 35
2019-05-30 04:00:00 19.6 8 Sudeste 14 Sudeste 0 976 0.2 32
2019-05-30 03:00:00 20.5 9 Sudeste 20 Este 0 975.9 0.4 29
2019-05-30 02:00:00 19.7 6 Sudeste 13 Sudeste 0 975.9 1 34
2019-05-30 01:00:00 18.4 5 Sudoeste 9 Sudoeste 0 975.8 1.7 44
2019-05-30 00:00:00 19.4 6 Sudoeste 8 Sudoeste 0 975.5 1.7 40
2019-05-29 23:00:00 21 6 Sudoeste 8 Sudoeste 0 974.9 1.4 36
2019-05-29 22:00:00 23.8 4 Oeste 15 Este 0 974.1 0.4 31
2019-05-29 21:00:00 29 10 Este 24 Nordeste 0 973.8 0 21
2019-05-29 20:00:00 29.5 14 Este 24 Norte 0 973.5 -0.7 19
2019-05-29 19:00:00 29.9 14 Norte 27 Nordeste 0 973.7 -0.7 19
2019-05-29 18:00:00 29.6 14 Nordeste 31 Este 0 973.8 -1 18
2019-05-29 17:00:00 29.6 15 Nordeste 31 Nordeste 0 974.2 -1 18
2019-05-29 16:00:00 28.7 13 Nordeste 31 Norte 0 974.4 -1.1 20
2019-05-29 15:00:00 27.8 14 Nordeste 32 Nordeste 0 974.8 -0.8 20
2019-05-29 14:00:00 26 12 Nordeste 33 Nordeste 0 975.2 -0.4 24
2019-05-29 13:00:00 24.6 13 Nordeste 37 Norte 0 975.5 0.2 25
2019-05-29 12:00:00 23.2 12 Nordeste 31 Nordeste 0 975.6 0.7 27
2019-05-29 11:00:00 21.7 19 Nordeste 33 Nordeste 0 975.6 1.3 28
2019-05-29 10:00:00 20.2 22 Nordeste 35 Nordeste 0 975.3 1.7 32
2019-05-29 09:00:00 18.5 12 Nordeste 21 Nordeste 0 974.9 1.7 37
2019-05-29 08:00:00 17 7 Este 13 Este 0 974.3 1.4 40
2019-05-29 07:00:00 15.9 10 Este 17 Nordeste 0 973.6 0.9 41
2019-05-29 06:00:00 15.3 0 Calma 10 Norte 0 973.2 0.9 43
2019-05-29 05:00:00 16.4 5 Nordeste 14 Norte 0 972.9 0.9 41
2019-05-29 04:00:00 16.6 3 Nordeste 8 Nordeste 0 972.7 1.1 41
2019-05-29 03:00:00 17.2 3 Norte 6 Norte 0 972.3 1.1 39
2019-05-29 02:00:00 18.5 2 Este 9 Norte 0 972 1.3 36
2019-05-29 01:00:00 19.3 3 Sudoeste 9 Noroeste 0 971.6 1.5 33
2019-05-29 00:00:00 22.2 6 Noroeste 16 Noroeste 0 971.2 1.6 26
2019-05-28 23:00:00 23.5 9 Noroeste 26 Norte 0 970.7 1.6 23
2019-05-28 22:00:00 25.1 14 Norte 35 Norte 0 970.1 1.2 22
2019-05-28 21:00:00 27.1 21 Norte 37 Norte 0 969.6 0.7 19
2019-05-28 20:00:00 28.5 21 Norte 40 Norte 0 969.1 0 17
2019-05-28 19:00:00 29.3 18 Norte 41 Norte 0 968.9 -0.4 15
2019-05-28 18:00:00 29.5 19 Norte 39 Norte 0 968.9 -0.5 13
2019-05-28 17:00:00 29.3 19 Norte 37 Norte 0 969.1 -0.5 12
2019-05-28 16:00:00 29.1 18 Norte 36 Nordeste 0 969.3 -0.2 14
2019-05-28 15:00:00 29 16 Norte 33 Norte 0 969.4 0.1 20
2019-05-28 14:00:00 28.3 13 Norte 36 Noroeste 0 969.6 0.4 28
2019-05-28 13:00:00 27.1 14 Norte 28 Norte 0 969.5 0.6 30
2019-05-28 12:00:00 26.1 13 Norte 21 Noroeste 0 969.3 0.7 32
2019-05-28 11:00:00 24.7 9 Nordeste 16 Nordeste 0 969.2 1 35
2019-05-28 10:00:00 21.7 7 Nordeste 16 Nordeste 0 968.9 1.4 42
2019-05-28 09:00:00 19.9 8 Este 13 Este 0 968.6 1.6 47
2019-05-28 08:00:00 17.1 0 Calma 5 Noroeste 0 968.2 1.3 58
2019-05-28 07:00:00 16.1 4 Noroeste 7 Noroeste 0 967.5 0.6 59
2019-05-28 06:00:00 17.5 6 Noroeste 12 Noroeste 0 967 -0.1 55
2019-05-28 05:00:00 18.7 7 Oeste 15 Noroeste 0 966.9 -0.4 49
2019-05-28 04:00:00 18.5 6 Oeste 13 Oeste 0 966.9 -0.3 49
2019-05-28 03:00:00 19.9 4 Oeste 15 Noroeste 0 967.1 0.1 47
2019-05-28 02:00:00 20.9 7 Noroeste 15 Oeste 0 967.3 0.8 47
2019-05-28 01:00:00 21.7 7 Noroeste 14 Noroeste 0 967.2 1.2 49
2019-05-28 00:00:00 21.8 4 Sudoeste 8 Noroeste 0 967 1.1 42
2019-05-27 23:00:00 23.3 5 Oeste 8 Oeste 0 966.5 1.1 34
2019-05-27 22:00:00 26.1 5 Noroeste 24 Noroeste 0 966 0.6 27
2019-05-27 21:00:00 28.8 18 Norte 32 Norte 0 965.9 0.2 23
2019-05-27 20:00:00 30 17 Norte 32 Norte 0 965.4 -0.6 22
2019-05-27 19:00:00 31 16 Norte 34 Noroeste 0 965.4 -1.1 21
2019-05-27 18:00:00 31.1 21 Noroeste 39 Noroeste 0 965.7 -1.6 21
2019-05-27 17:00:00 31 18 Noroeste 33 Norte 0 966 -1.9 23
2019-05-27 16:00:00 30.9 15 Oeste 29 Noroeste 0 966.5 -2.1 24
2019-05-27 15:00:00 30.3 14 Norte 33 Norte 0 967.3 -1.6 24
2019-05-27 14:00:00 29.2 14 Norte 29 Nordeste 0 967.9 -1.2 26
2019-05-27 13:00:00 28 11 Noroeste 21 Noroeste 0 968.6 -0.8 29
2019-05-27 12:00:00 26.8 9 Norte 18 Norte 0 968.9 -0.3 31
2019-05-27 11:00:00 25.1 6 Nordeste 14 Noroeste 0 969.1 0 34
2019-05-27 10:00:00 23.2 7 Norte 13 Norte 0 969.4 0.4 38
2019-05-27 09:00:00 21.7 4 Noroeste 11 Noroeste 0 969.2 0.4 42
2019-05-27 08:00:00 19 3 Oeste 12 Noroeste 0 969.1 0.1 51
2019-05-27 07:00:00 17.4 7 Oeste 10 Sudoeste 0 969 -0.3 52
2019-05-27 06:00:00 17 6 Oeste 9 Sudoeste 0 968.8 -0.7 54
2019-05-27 05:00:00 18.6 7 Sudoeste 13 Oeste 0 969 -1.3 48
2019-05-27 04:00:00 19.4 6 Oeste 10 Sudoeste 0 969.3 -1 44
2019-05-27 03:00:00 19.6 9 Sudoeste 15 Noroeste 0 969.5 -1 40
2019-05-27 02:00:00 19.3 6 Noroeste 17 Noroeste 0 970.3 0 39
2019-05-27 01:00:00 19.6 6 Sudoeste 8 Sudoeste 0 970.3 0.5 40
2019-05-27 00:00:00 21.9 3 Sudoeste 6 Sudoeste 0 970.5 0.7 32
2019-05-26 23:00:00 22.9 4 Sudoeste 14 Nordeste 0 970.3 0.7 31
2019-05-26 22:00:00 25.7 10 Norte 31 Norte 0 969.8 0 25
2019-05-26 21:00:00 28.5 18 Norte 38 Nordeste 0 969.8 -0.2 19
2019-05-26 20:00:00 29.4 21 Norte 43 Norte 0 969.6 -1 20
2019-05-26 19:00:00 29.9 23 Norte 45 Norte 0 969.8 -1.3 19
2019-05-26 18:00:00 30 23 Norte 48 Norte 0 970 -1.6 19
2019-05-26 17:00:00 29.5 20 Norte 36 Nordeste 0 970.6 -1.8 22
2019-05-26 16:00:00 28.8 16 Norte 29 Noroeste 0 971.1 -1.9 25
2019-05-26 15:00:00 27.7 9 Norte 25 Norte 0 971.6 -1.7 27
2019-05-26 14:00:00 26.2 9 Norte 28 Noroeste 0 972.4 -1 27
2019-05-26 13:00:00 24.9 10 Nordeste 21 Norte 0 973 -0.7 29
2019-05-26 12:00:00 23.5 12 Norte 23 Norte 0 973.3 -0.4 30
2019-05-26 11:00:00 22.6 10 Nordeste 22 Nordeste 0 973.4 -0.1 30
2019-05-26 10:00:00 20.6 4 Noroeste 12 Norte 0 973.7 0.6 36
2019-05-26 09:00:00 17.9 4 Norte 9 Norte 0 973.7 0.9 41
2019-05-26 08:00:00 15.2 4 Oeste 8 Oeste 0 973.5 0.7 49
2019-05-26 07:00:00 13.1 4 Sudoeste 8 Sudoeste 0 973.1 0.2 54
2019-05-26 06:00:00 13.6 7 Sudoeste 8 Sudoeste 0 972.8 -0.1 53
2019-05-26 05:00:00 14.9 6 Sudoeste 9 Sudoeste 0 972.8 -0.3 48
2019-05-26 04:00:00 15.1 6 Sudoeste 9 Sudoeste 0 972.9 -0.1 47
2019-05-26 03:00:00 15.4 8 Sudoeste 9 Sudoeste 0 972.9 -0.2 47
2019-05-26 02:00:00 16.3 4 Sudoeste 8 Sudoeste 0 973.1 0.6 45
2019-05-26 01:00:00 17.6 5 Sudoeste 8 Sudoeste 0 973 0.9 42
2019-05-26 00:00:00 18.6 6 Sudoeste 9 Sudoeste 0 973.1 1.6 38
2019-05-25 23:00:00 20.4 5 Oeste 17 Nordeste 0 972.5 1.3 33
2019-05-25 22:00:00 23.1 6 Norte 26 Norte 0 972.1 1 27
2019-05-25 21:00:00 25.6 17 Norte 27 Norte 0 971.5 0.3 24
2019-05-25 20:00:00 26.5 15 Norte 30 Noroeste 0 971.2 -0.2 23
2019-05-25 19:00:00 27.3 14 Norte 28 Norte 0 971.1 -0.8 24
2019-05-25 18:00:00 27.3 10 Norte 23 Norte 0 971.2 -1.2 22
2019-05-25 17:00:00 26.7 12 Norte 26 Nordeste 0 971.4 -1.5 20
2019-05-25 16:00:00 26.1 8 Norte 24 Norte 0 971.9 -1.3 23
2019-05-25 15:00:00 24.8 11 Norte 37 Nordeste 0 972.4 -0.9 26
2019-05-25 14:00:00 23.7 10 Nordeste 27 Norte 0 972.9 -0.4 28
2019-05-25 13:00:00 22.7 14 Nordeste 29 Nordeste 0 973.2 -0.1 31
2019-05-25 12:00:00 21.7 13 Nordeste 30 Este 0 973.3 0.1 34
2019-05-25 11:00:00 20.2 14 Nordeste 26 Nordeste 0 973.3 0.7 39
2019-05-25 10:00:00 18.5 13 Nordeste 24 Norte 0 973.3 1.4 42
2019-05-25 09:00:00 16.2 5 Norte 12 Norte 0 973.2 1.7 48
2019-05-25 08:00:00 13.8 3 Noroeste 8 Norte 0 972.6 1.3 55
2019-05-25 07:00:00 11.9 4 Sudoeste 7 Oeste 0 971.9 0.9 63
2019-05-25 06:00:00 12.2 3 Sudoeste 8 Sudoeste 0 971.5 0.9 62
2019-05-25 05:00:00 12.7 5 Sudoeste 10 Sudoeste 0 971.3 0.9 58
2019-05-25 04:00:00 14.7 4 Oeste 11 Sudoeste 0 971 0.8 49
2019-05-25 03:00:00 15.9 3 Sudoeste 12 Nordeste 0 970.6 0.6 43
2019-05-25 02:00:00 17 2 Oeste 12 Norte 0 970.4 0.8 39
2019-05-25 01:00:00 17.9 5 Norte 9 Norte 0 970.2 1.7 36
2019-05-25 00:00:00 19.5 3 Oeste 14 Norte 0 970 2.1 34
2019-05-24 23:00:00 21.6 5 Noroeste 23 Norte 0 969.6 2.3 28
2019-05-24 22:00:00 23 12 Norte 31 Norte 0 968.5 1.4 25
2019-05-24 21:00:00 24.3 15 Norte 40 Noroeste 0 967.9 0.8 22
2019-05-24 20:00:00 25.8 21 Norte 41 Norte 0 967.3 -0.3 22
2019-05-24 19:00:00 26.9 19 Norte 40 Norte 0 967.1 -0.7 22
2019-05-24 18:00:00 27.2 19 Norte 37 Noroeste 0 967.1 -1 24
2019-05-24 17:00:00 27 17 Norte 35 Noroeste 0 967.6 -0.7 26
2019-05-24 16:00:00 26.2 19 Norte 35 Nordeste 0 967.8 -0.7 25
2019-05-24 15:00:00 25.7 19 Norte 37 Nordeste 0 968.1 -0.5 28
2019-05-24 14:00:00 24.7 21 Norte 44 Noroeste 0 968.3 -0.9 34
2019-05-24 13:00:00 24 20 Norte 40 Norte 0 968.5 -0.6 38
2019-05-24 12:00:00 22.1 21 Norte 45 Norte 0 968.6 -0.6 44
2019-05-24 11:00:00 20.3 21 Norte 42 Norte 0 969.2 0.4 48
2019-05-24 10:00:00 18.1 19 Noroeste 28 Noroeste 0 969.1 0.4 49
2019-05-24 09:00:00 16.6 15 Noroeste 28 Noroeste 0 969.2 0.4 51
2019-05-24 08:00:00 14.9 9 Oeste 28 Noroeste 0 968.8 -0.2 58
2019-05-24 07:00:00 15.2 13 Oeste 25 Oeste 0 968.7 -0.8 59
2019-05-24 06:00:00 15.7 10 Noroeste 21 Noroeste 0 968.8 -1.1 59
2019-05-24 05:00:00 16.1 13 Oeste 22 Noroeste 0 969 -1.1 59
2019-05-24 04:00:00 16.8 13 Noroeste 24 Noroeste 0 969.5 -0.6 57
2019-05-24 03:00:00 17.3 15 Oeste 28 Oeste 0 969.9 -0.8 56
2019-05-24 02:00:00 17.6 12 Oeste 28 Oeste 0 970.1 -0.3 58
2019-05-24 01:00:00 18.4 13 Oeste 33 Oeste 0 970.1 0 58
2019-05-24 00:00:00 18.5 14 Oeste 35 Oeste 0 970.7 1 60
2019-05-23 23:00:00 19.9 21 Oeste 35 Oeste 0 970.4 0.9 54
2019-05-23 22:00:00 21.4 14 Oeste 40 Oeste 0 970.1 0.8 48
2019-05-23 21:00:00 23.5 20 Oeste 36 Oeste 0 969.7 0.1 42
2019-05-23 20:00:00 25.9 18 Oeste 35 Oeste 0 969.5 -0.4 27
2019-05-23 19:00:00 28.3 13 Oeste 32 Oeste 0 969.3 -1.1 22
2019-05-23 18:00:00 28.3 16 Oeste 28 Noroeste 0 969.6 -1.2 21
2019-05-23 17:00:00 28.5 15 Noroeste 31 Noroeste 0 969.9 -1.5 22
2019-05-23 16:00:00 27.8 13 Oeste 35 Noroeste 0 970.4 -1.4 23
2019-05-23 15:00:00 27.4 10 Oeste 31 Sudoeste 0 970.8 -1.2 28
2019-05-23 14:00:00 27 14 Oeste 28 Oeste 0 971.4 -0.7 24
2019-05-23 13:00:00 26 13 Oeste 29 Sudoeste 0 971.8 -0.2 29
2019-05-23 12:00:00 24.7 12 Sudoeste 25 Sudoeste 0 972 0.2 33
2019-05-23 11:00:00 21.8 15 Sudoeste 28 Sudoeste 0 972.1 0.9 46
2019-05-23 10:00:00 19.9 9 Oeste 21 Sudoeste 0 972 0.8 56
2019-05-23 09:00:00 16.3 3 Norte 5 Norte 0 971.8 0.6 73
2019-05-23 08:00:00 14.8 0 Calma 10 Sudoeste 0 971.2 -0.1 77
2019-05-23 07:00:00 14 4 Sudoeste 6 Sudoeste 0 971.2 -0.1 81
2019-05-23 06:00:00 16 2 Sur 6 Sudeste 0 971.2 -0.2 72
2019-05-23 05:00:00 17.9 5 Oeste 13 Oeste 0 971.3 -0.2 63
2019-05-23 04:00:00 18.5 8 Oeste 21 Sudoeste 0 971.3 -0.4 61
2019-05-23 03:00:00 18.8 10 Oeste 21 Oeste 0 971.4 0 63
2019-05-23 02:00:00 19.2 6 Oeste 15 Noroeste 0 971.5 0.6 62
2019-05-23 01:00:00 20.6 6 Noroeste 26 Oeste 0 971.7 1.3 56
2019-05-23 00:00:00 22 15 Oeste 28 Oeste 0 971.4 1.4 47
2019-05-22 23:00:00 22.9 9 Oeste 18 Sudoeste 0 970.9 1.1 36
2019-05-22 22:00:00 23 8 Sudoeste 18 Oeste 0 970.4 0.7 34
2019-05-22 21:00:00 27.5 6 Sudoeste 16 Oeste 0 970 0 24
2019-05-22 20:00:00 27.8 6 Sudoeste 18 Oeste 0 969.8 -0.4 23
2019-05-22 19:00:00 29.1 3 Sudoeste 22 Sudoeste 0 969.7 -0.8 22
2019-05-22 18:00:00 27.6 6 Oeste 22 Noroeste 0 970 -1.1 26
2019-05-22 17:00:00 27.6 8 Noroeste 30 Noroeste 0 970.2 -1.1 26
2019-05-22 16:00:00 28.8 11 Sudoeste 22 Sudoeste 0 970.5 -1.1 25
2019-05-22 15:00:00 27.5 8 Noroeste 25 Sudoeste 0 971.1 -0.5 26
2019-05-22 14:00:00 26.4 9 Sudoeste 23 Oeste 0 971.3 -0.3 27
2019-05-22 13:00:00 26.4 7 Noroeste 23 Sudoeste 0 971.6 0.2 29
2019-05-22 12:00:00 25.2 8 Noroeste 17 Oeste 0 971.6 0.5 36
2019-05-22 11:00:00 22.6 4 Nordeste 11 Nordeste 0 971.6 1 45
2019-05-22 10:00:00 19.9 3 Este 10 Este 0 971.4 1.2 55
2019-05-22 09:00:00 18.1 3 Este 7 Este 0 971.1 1 62
2019-05-22 08:00:00 15.3 2 Este 6 Sudoeste 0 970.6 0.6 70
2019-05-22 07:00:00 13.5 5 Sudoeste 7 Sudoeste 0 970.2 0.1 75
2019-05-22 06:00:00 14.9 5 Sudeste 11 Sudoeste 0 970.1 0 70
2019-05-22 05:00:00 16.3 9 Sudoeste 23 Oeste 0 970 0 65
2019-05-22 04:00:00 17.1 17 Sudoeste 26 Sudoeste 0 970.1 0 68
2019-05-22 03:00:00 17.9 10 Oeste 31 Oeste 0 970.1 0 64
2019-05-22 02:00:00 18.3 14 Oeste 26 Sudoeste 0 970 0.3 63
2019-05-22 01:00:00 19.3 11 Oeste 22 Oeste 0 970.1 1.4 56
2019-05-22 00:00:00 20.2 13 Oeste 23 Oeste 0 970.1 1.8 48